Pilot Magazine UKGA

About You

Log In Register UKGA membership

Flight planning

Flight planning New flightplan NOTAM map LARS map & NOTAMs Danger area, mil. & TRA activations Weather map GPS route download Find waypoints Your waypoints New waypoint

Forums

Forums Currently discussing "England light aircraft aircraft fly to Wales and Scotland?"

Other items

Articles Events Links News Surveys Tips Other users Feedback UKGA membership About UKGA

TAFs

UK

TAF EGAA 280500Z 2806/2906 14005KT 9999 FEW045
      
TAF EGAC 280755Z 2809/2818 12005KT 9999 FEW045
      
TAF EGAE 271400Z 2715/2718 06009KT 9999 SCT040
      
TAF EGBB 280457Z 2806/2906 09004KT 9999 FEW040
      
TAF EGBJ 280802Z 2809/2818 10005KT CAVOK
      
TAF EGCC 280457Z 2806/2912 16003KT CAVOK
      
TAF EGCK 280806Z 2809/2818 VRB04KT CAVOK
      
TAF EGCN 280456Z 2806/2906 13005KT 8000 BKN005 
      BECMG 2806/2809 CAVOK
      
TAF EGDM 271017Z 2712/2716 04005KT 9999 SCT040
      
TAF EGDR 280743Z 2809/2818 09018G28KT CAVOK
      
TAF EGDY 280731Z 2809/2818 11007KT 9999 FEW040
      
TAF EGEC 280659Z 2806/2809 12012KT 9999 SCT045= TAF EPSY 280700Z 2807/2815 36012KT CAVOK PROB40 
      TEMPO 2808/2815 36015G25KT -SHRA BKN030TCU
      
TAF EGFF 280455Z 2806/2906 10009KT CAVOK
      
TAF EGGD 280455Z 2806/2906 10009KT CAVOK
      
TAF EGGP 280457Z 2806/2906 12006KT CAVOK PROB30 
      TEMPO 2815/2820 28010KT
      
TAF AMD EGGW 280556Z 2806/2906 10009KT 9999 FEW045 PROB30 2806/2807 BKN004
      
TAF AMD EGHC 280828Z 2809/2816 11020G30KT CAVOK
      
TAF EGHE 280809Z 2809/2811 10018G28KT CAVOK
      
TAF EGHH 280802Z 2809/2817 09009KT CAVOK
      
TAF EGHI 271640Z 2715/2719 CNL
      
TAF EGHQ 280804Z 2809/2818 12014KT CAVOK PROB30 
      TEMPO 2809/2818 12017G27KT
      
TAF EGJA 271830Z 2718/2800 CNL
      
TAF EGJB 280800Z 2809/2818 06012KT CAVOK
      
TAF EGJJ 280800Z 2809/2818 07014KT CAVOK
      
TAF EGKA 271404Z 2715/2717 16006KT 9999 FEW048
      
TAF EGKB 280758Z 2809/2818 09009KT 9999 FEW040
      
TAF EGKK 280456Z 2806/2912 08007KT 9999 FEW045 PROB30 
      TEMPO 2806/2807 BKN010
      
TAF EGLC 280758Z 2809/2818 09008KT CAVOK
      
TAF EGLF 280758Z 2809/2818 08009KT CAVOK
      
TAF EGLL 280452Z 2806/2912 09008KT CAVOK PROB30 
      TEMPO 2806/2807 BKN012
      
TAF EGMC 280758Z 2809/2818 10010KT CAVOK
      
TAF EGMD 280758Z 2809/2818 05015KT CAVOK
      
TAF EGNH 280806Z 2809/2818 15012KT CAVOK PROB30 2815/2818 VRB04KT
      
TAF EGNJ 280806Z 2809/2818 16007KT 9999 FEW020
      
TAF EGNM 271102Z 2712/2716 02005KT 9999 FEW045
      
TAF EGNO 271401Z 2715/2718 33010KT 9999 FEW040
      
TAF EGNR 280806Z 2809/2818 15008KT CAVOK
      
TAF EGNS 280500Z 2806/2809 07006KT CAVOK
      
TAF EGNT 280456Z 2806/2906 VRB04KT CAVOK PROB30 2823/2906 8000
      
TAF EGNV 280806Z 2809/2818 19007KT 4000 HZ FEW020 
      BECMG 2809/2810 9999 NSW
      
TAF AMD EGNX 280526Z 2806/2906 08004KT 0600 FG BKN001 
      BECMG 2806/2808 CAVOK
      
TAF EGOS 280723Z 2809/2818 12006KT CAVOK
      
TAF EGOV 280725Z 2809/2818 26003KT CAVOK
      
TAF EGPA 280800Z 2809/2818 21010KT 9999 SCT004 BKN015 
      BECMG 2809/2812 27009KT 
      TEMPO 2809/2818 3000 -DZ BKN004 PROB30 2809/2818 1200 BR BKN001
      
TAF EGPB 280800Z 2809/2818 18009KT 9999 BKN010 
      TEMPO 2809/2818 2000 DZ BKN003 PROB30 2809/2818 1200 BR BKN001
      
TAF EGPC 280800Z 2809/2818 21009KT 9999 SCT030 
      TEMPO 2809/2818 6000 BKN012 PROB30 
      TEMPO 2809/2812 2000 RADZ BR BKN004
      
TAF EGPD 280501Z 2806/2906 16009KT 9999 SCT045 
      BECMG 2809/2812 32010KT 
      TEMPO 2812/2818 12010KT PROB40 2823/2901 4000 BR PROB30 2901/2906 0300 FG BKN001
      
TAF EGPE 280800Z 2809/2818 24012KT 9999 FEW035 
      TEMPO 2815/2818 05009KT
      
TAF EGPF 280501Z 2806/2906 VRB03KT 9999 SCT045 
      BECMG 2806/2809 25010KT PROB40 2823/2902 4000 BR PROB30 2902/2906 0300 FG BKN001
      
TAF EGPH 280501Z 2806/2906 25007KT 9999 FEW045 PROB30 2823/2902 4000 BR PROB30 2902/2906 2000 BR MIFG
      
TAF EGPI 280801Z 2809/2818 14012KT 9999 FEW045
      
TAF EGPK 280501Z 2806/2906 15004KT 9999 FEW045 
      BECMG 2809/2812 26010KT PROB30 2900/2906 8000
      
TAF EGPL 280800Z 2809/2818 22012KT 9999 SCT006 BKN025 
      TEMPO 2809/2812 8000 BKN006 PROB30 2809/2812 0700 FG BKN001
      
TAF EGPM 280800Z 2809/2818 17009KT 9999 SCT010 BKN015 
      TEMPO 2809/2818 2000 DZ BKN005 PROB30 2809/2818 1200 BR BKN001
      
TAF EGPN 280801Z 2809/2818 24009KT 9999 FEW045
      
TAF EGPO 280800Z 2809/2818 24009KT 9999 FEW007 SCT010 
      TEMPO 2809/2813 BKN010 PROB30 
      TEMPO 2809/2812 3000 BR BKN007
      
TAF EGPU 280801Z 2809/2818 20009KT 9999 FEW045 
      BECMG 2815/2818 14010KT
      
TAF EGQK 280729Z 2809/2903 27008KT 9999 SCT030 PROB30 2823/2903 0700 FG SCT002
      
TAF EGQL 280741Z 2809/2818 25010KT 9999 FEW035
      
TAF EGQS 280729Z 2809/2903 VRB05KT 9999 SCT030 PROB30 2823/2903 0700 FG SCT002
      
TAF EGSC 271400Z 2715/2717 04005KT 9999 FEW048
      
TAF EGSH 280757Z 2809/2818 11008KT 9999 FEW045
      
TAF EGSS 280456Z 2806/2912 11008KT 9999 FEW045
      
TAF EGSY 280802Z 2809/2813 10010KT CAVOK
      
TAF EGTC 280806Z 2809/2816 10007KT CAVOK
      
TAF EGTE 280804Z 2809/2816 13009KT CAVOK
      
TAF EGTK 280806Z 2809/2818 09007KT CAVOK
      
TAF EGUB 271933Z 2721/2803 05004KT CAVOK
      
TAF EGUL 280600Z 2806/2912 10006KT 9999 FEW200 QNH3056INS 
      BECMG 2811/2812 12009KT 9999 SCT080 QNH3041INS 
      TEMPO 2903/2908 9000 BR TX19/2814Z TN06/2806Z
      
TAF EGUN 280400Z 2804/2910 11006KT 9999 FEW030 QNH3058INS 
      BECMG 2808/2809 13010G15KT 9999 FEW030 QNH3048INS 
      BECMG 2820/2821 12009KT 9999 FEW060 QNH3046INS 
      BECMG 2902/2903 11009KT 8000 BR FEW050 QNH3044INS 
      BECMG 2907/2908 10012KT 9999 NSW FEW050 QNH3042INS TX20/2814Z TN08/2804Z
      
TAF EGUW 280732Z 2809/2818 11008KT CAVOK
      
TAF EGVN 280718Z 2809/2909 09008KT CAVOK
      
TAF EGVO 271919Z 2721/2809 14006KT CAVOK
      
TAF EGVP 280721Z 2809/2818 09008KT CAVOK
      
TAF EGWU 280749Z 2809/2903 10010KT CAVOK= TAF EGYP 280747Z 2809/2903 25012KT 9999 SCT025 PROB30 
      TEMPO 2815/2818 7000 -SHRA SCT012 
      TEMPO 2818/2824 4000 SHRA SCT005 BKN009
      
TAF EGXC 280721Z 2809/2903 15008KT CAVOK
      
TAF EGXE 280729Z 2809/2818 16007KT CAVOK
      
TAF EGXP 280723Z 2809/2818 16008KT CAVOK
      
TAF EGXT 280821Z 2809/2817 12006KT CAVOK
      
TAF EGXW 280720Z 2809/2903 15005KT CAVOK
      
TAF EGYD 280734Z 2809/2817 15008KT CAVOK
      
TAF AMD EGYM 272042Z 2721/2802 07008KT CAVOK
      
TAF EGYP 280747Z 2809/2903 25012KT 9999 SCT025 PROB30 
      TEMPO 2815/2818 7000 -SHRA SCT012 
      TEMPO 2818/2824 4000 SHRA SCT005 BKN009
      

About You

Log In Register UKGA membership

Airfields

Interactive airfield map Search by name Search by postcode Search by location Fuel prices Pilot reviews Latest
(No favourites selected)

Flight planning

Flight planning New flightplan NOTAM map LARS map & NOTAMs Danger area, mil. & TRA activations Weather map GPS route download Find waypoints Your waypoints New waypoint

Forums

Forums Currently discussing "England light aircraft aircraft fly to Wales and Scotland?"

Other items

Articles Events Links News Surveys Tips Other users Feedback UKGA membership About UKGA